Time;durP1;ratioP1;P1;durP2;ratioP2;P2;SDS_P1;SDS_P2;PMS_P1;PMS_P2;Temp;Humidity;BMP_temperature;BMP_pressure;BME280_temperature;BME280_humidity;BME280_pressure;Samples;Min_cycle;Max_cycle;Signal;HPM_P1;HPM_P2
2022/04/16 00:00:13;;;;;;;34.67;21.88;;;;;;;7.08;100.00;101603.50;5073803;28;20044;-78
2022/04/16 00:02:39;;;;;;;33.60;20.80;;;;;;;7.02;100.00;101605.25;5074979;28;20020;-77
2022/04/16 00:05:05;;;;;;;33.90;21.73;;;;;;;6.99;100.00;101604.31;5073700;28;20370;-78
2022/04/16 00:07:30;;;;;;;34.83;21.27;;;;;;;6.93;100.00;101605.19;5073517;28;20032;-79
2022/04/16 00:09:55;;;;;;;36.15;20.95;;;;;;;6.89;100.00;101598.97;5073794;28;20028;-77
2022/04/16 00:12:21;;;;;;;34.88;21.58;;;;;;;6.87;100.00;101599.84;5093872;22;20051;-80
2022/04/16 00:14:46;;;;;;;32.58;21.25;;;;;;;6.86;100.00;101611.31;5072966;28;20378;-81
2022/04/16 00:17:11;;;;;;;37.08;20.95;;;;;;;6.82;100.00;101608.66;5073308;28;20024;-80
2022/04/16 00:19:37;;;;;;;36.85;22.42;;;;;;;6.80;100.00;101609.53;5073476;28;20023;-80
2022/04/16 00:22:07;;;;;;;36.25;21.50;;;;;;;6.76;100.00;101600.66;5072841;28;20025;-80
2022/04/16 00:24:33;;;;;;;33.97;20.98;;;;;;;6.77;100.00;101598.88;5073177;28;20021;-81
2022/04/16 00:26:58;;;;;;;34.25;21.90;;;;;;;6.75;100.00;101598.84;5072826;28;20070;-80
2022/04/16 00:29:24;;;;;;;39.15;22.17;;;;;;;6.74;100.00;101599.75;5072605;28;20086;-79
2022/04/16 00:31:49;;;;;;;34.42;21.15;;;;;;;6.72;100.00;101596.22;5072589;28;20021;-79
2022/04/16 00:34:14;;;;;;;34.83;20.83;;;;;;;6.72;100.00;101601.50;5072407;28;20548;-80
2022/04/16 00:36:43;;;;;;;30.17;19.33;;;;;;;6.79;100.00;101597.13;5072682;28;20032;-81
2022/04/16 00:39:09;;;;;;;30.65;18.92;;;;;;;6.76;100.00;101590.03;5073421;28;20033;-81
2022/04/16 00:41:34;;;;;;;32.95;18.40;;;;;;;6.73;100.00;101595.31;5073438;28;20054;-80
2022/04/16 00:43:59;;;;;;;29.75;17.25;;;;;;;6.72;100.00;101593.56;5071988;28;20033;-80
2022/04/16 00:46:25;;;;;;;27.65;16.80;;;;;;;6.68;100.00;101597.03;5073200;28;20155;-80
2022/04/16 00:48:51;;;;;;;28.70;17.23;;;;;;;6.66;100.00;101598.81;5072607;28;20075;-79
2022/04/16 00:51:17;;;;;;;24.38;15.73;;;;;;;6.62;100.00;101603.22;5072727;28;20426;-81
2022/04/16 00:53:43;;;;;;;25.08;16.08;;;;;;;6.59;100.00;101606.75;5072807;28;20046;-80
2022/04/16 00:56:11;;;;;;;24.27;15.85;;;;;;;6.54;100.00;101604.91;5072424;28;20469;-80
2022/04/16 00:58:39;;;;;;;21.70;14.30;;;;;;;6.54;100.00;101611.13;5072319;28;20473;-80
2022/04/16 01:01:04;;;;;;;22.83;15.38;;;;;;;6.51;100.00;101613.75;5073025;28;20031;-80
2022/04/16 01:03:29;;;;;;;23.80;15.27;;;;;;;6.50;100.00;101611.94;5073483;28;20024;-80
2022/04/16 01:05:55;;;;;;;24.23;15.68;;;;;;;6.50;100.00;101604.00;5075780;28;20107;-80
2022/04/16 01:08:22;;;;;;;24.27;16.10;;;;;;;6.50;100.00;101616.34;5076203;28;20114;-80
2022/04/16 01:10:47;;;;;;;26.55;16.70;;;;;;;6.52;100.00;101615.50;5075953;28;20028;-80
2022/04/16 01:13:13;;;;;;;31.45;17.13;;;;;;;6.54;100.00;101612.88;5076072;28;20028;-80
2022/04/16 01:15:39;;;;;;;28.48;17.48;;;;;;;6.56;100.00;101612.00;5075783;28;20078;-79
2022/04/16 01:18:05;;;;;;;28.50;17.08;;;;;;;6.61;100.00;101621.75;5076235;28;20043;-79
2022/04/16 01:20:37;;;;;;;28.98;17.67;;;;;;;6.63;100.00;101622.66;5076262;28;20032;-79
2022/04/16 01:23:03;;;;;;;33.63;18.02;;;;;;;6.65;100.00;101620.94;5076470;28;20017;-80
2022/04/16 01:25:32;;;;;;;28.45;17.48;;;;;;;6.64;100.00;101625.34;5077080;28;20024;-80
2022/04/16 01:27:57;;;;;;;31.77;18.88;;;;;;;6.67;100.00;101630.69;5077798;28;20082;-81
2022/04/16 01:30:23;;;;;;;29.60;18.98;;;;;;;6.69;100.00;101634.25;5076827;28;20024;-79
2022/04/16 01:32:52;;;;;;;32.40;18.50;;;;;;;6.70;100.00;101635.13;5077027;28;20028;-81
2022/04/16 01:35:17;;;;;;;31.58;18.83;;;;;;;6.73;100.00;101640.44;5076505;28;20024;-80
2022/04/16 01:37:43;;;;;;;33.78;18.33;;;;;;;6.72;100.00;101641.34;5076486;28;20397;-80
2022/04/16 01:40:11;;;;;;;33.60;19.98;;;;;;;6.72;100.00;101651.06;5074771;28;20050;-80
2022/04/16 01:42:37;;;;;;;33.35;20.55;;;;;;;6.72;100.00;101648.41;5076599;28;20033;-81
2022/04/16 01:45:09;;;;;;;35.72;19.55;;;;;;;6.73;100.00;101651.06;5076123;28;20107;-78
2022/04/16 01:47:36;;;;;;;36.80;20.33;;;;;;;6.74;100.00;101652.84;5075377;28;20028;-81
2022/04/16 01:50:03;;;;;;;34.60;19.20;;;;;;;6.75;100.00;101649.31;5076423;28;20027;-81
2022/04/16 01:52:28;;;;;;;33.88;19.98;;;;;;;6.75;100.00;101649.31;5075929;28;20021;-84
2022/04/16 01:54:54;;;;;;;36.63;21.00;;;;;;;6.74;100.00;101652.84;5076324;28;20024;-82
2022/04/16 01:57:19;;;;;;;34.60;20.65;;;;;;;6.69;100.00;101659.88;5075869;28;20028;-81
2022/04/16 01:59:48;;;;;;;37.50;21.40;;;;;;;6.74;100.00;101657.25;5075942;28;20450;-81
2022/04/16 02:02:14;;;;;;;41.85;21.92;;;;;;;6.69;100.00;101659.88;5075718;28;20028;-80
2022/04/16 02:04:40;;;;;;;39.42;21.05;;;;;;;6.67;100.00;101656.34;5074605;28;20542;-80
2022/04/16 02:07:05;;;;;;;38.92;22.48;;;;;;;6.70;100.00;101664.34;5076032;28;20103;-82
2022/04/16 02:09:31;;;;;;;43.00;23.25;;;;;;;6.68;100.00;101669.59;5075636;28;20029;-82
2022/04/16 02:11:56;;;;;;;40.47;23.00;;;;;;;6.68;100.00;101658.09;5076443;28;20465;-81
2022/04/16 02:14:21;;;;;;;39.45;22.83;;;;;;;6.68;100.00;101660.75;5075202;28;20103;-81
2022/04/16 02:16:48;;;;;;;37.65;23.02;;;;;;;6.68;100.00;101663.41;5074498;28;20036;-82
2022/04/16 02:19:14;;;;;;;44.97;23.80;;;;;;;6.65;100.00;101666.06;5074680;28;20020;-81
2022/04/16 02:21:43;;;;;;;38.83;22.08;;;;;;;6.61;100.00;101656.28;5074296;28;20070;-81
2022/04/16 02:24:09;;;;;;;42.30;23.13;;;;;;;6.58;100.00;101658.03;5074913;28;20021;-82
2022/04/16 02:26:34;;;;;;;38.20;21.27;;;;;;;6.61;100.00;101672.19;5074950;28;20029;-82
2022/04/16 02:29:00;;;;;;;42.40;21.80;;;;;;;6.58;100.00;101676.59;5075460;28;20056;-83
2022/04/16 02:31:26;;;;;;;38.25;21.50;;;;;;;6.51;100.00;101672.13;5074736;28;20508;-83
2022/04/16 02:33:55;;;;;;;46.58;22.90;;;;;;;6.50;100.00;101665.03;5074369;28;20465;-82
2022/04/16 02:36:23;;;;;;;39.45;22.30;;;;;;;6.49;100.00;101663.25;5074817;28;20028;-82
2022/04/16 02:38:49;;;;;;;41.47;22.10;;;;;;;6.44;100.00;101667.63;5074886;28;20024;-83
2022/04/16 02:41:14;;;;;;;40.25;21.55;;;;;;;6.39;100.00;101678.19;5075269;28;20073;-81
2022/04/16 02:43:40;;;;;;;43.35;21.67;;;;;;;6.39;100.00;101674.66;5075142;28;20024;-83
2022/04/16 02:48:49;;;;;;;41.80;21.23;;;;;;;6.35;100.00;101671.97;5075046;28;20077;-82
2022/04/16 02:51:14;;;;;;;36.95;20.80;;;;;;;6.30;100.00;101673.69;5074708;28;20032;-81
2022/04/16 02:53:40;;;;;;;39.08;20.67;;;;;;;6.28;100.00;101680.75;5074095;28;20025;-80
2022/04/16 02:56:05;;;;;;;41.80;19.63;;;;;;;6.28;100.00;101675.44;5073898;28;20024;-80
2022/04/16 02:58:31;;;;;;;33.00;18.48;;;;;;;6.28;100.00;101679.84;5072275;28;20030;-82
2022/04/16 03:00:56;;;;;;;37.95;20.27;;;;;;;6.24;100.00;101681.56;5073998;28;20031;-82
2022/04/16 03:03:24;;;;;;;38.42;19.83;;;;;;;6.20;100.00;101678.00;5072293;28;20027;-81
2022/04/16 03:05:49;;;;;;;38.45;19.70;;;;;;;6.17;100.00;101688.56;5073569;28;20024;-81
2022/04/16 03:08:15;;;;;;;36.13;19.85;;;;;;;6.18;100.00;101689.47;5072882;28;20611;-81
2022/04/16 03:10:41;;;;;;;35.08;19.08;;;;;;;6.12;100.00;101685.88;5074100;28;20036;-81
2022/04/16 03:13:07;;;;;;;36.90;19.35;;;;;;;6.14;100.00;101688.53;5074512;28;20108;-82
2022/04/16 03:18:16;;;;;;;;;;;;;;;6.11;100.00;101694.69;5074106;28;20436;-81
2022/04/16 03:20:42;;;;;;;39.22;19.80;;;;;;;6.02;100.00;101697.22;5073955;28;20301;-82
2022/04/16 03:23:09;;;;;;;39.13;19.45;;;;;;;5.97;100.00;101706.88;5073356;28;20496;-82
2022/04/16 03:25:37;;;;;;;42.15;19.88;;;;;;;5.97;100.00;101698.94;5072681;28;20031;-83
2022/04/16 03:28:03;;;;;;;36.95;19.17;;;;;;;5.95;100.00;101704.22;5073015;28;20024;-81
2022/04/16 03:30:28;;;;;;;37.50;18.55;;;;;;;5.90;100.00;101709.44;5072923;28;20031;-81
2022/04/16 03:32:53;;;;;;;35.97;18.30;;;;;;;5.89;100.00;101704.13;5072922;28;20051;-81
2022/04/16 03:35:20;;;;;;;39.80;18.50;;;;;;;5.88;100.00;101718.25;5073111;28;20052;-81
2022/04/16 03:37:46;;;;;;;38.25;18.52;;;;;;;5.85;100.00;101716.44;5073239;28;20040;-80
2022/04/16 03:40:15;;;;;;;31.80;16.85;;;;;;;5.83;100.00;101710.25;5072743;28;20114;-83
2022/04/16 03:42:44;;;;;;;35.55;16.88;;;;;;;5.80;100.00;101711.09;5073333;28;20052;-81
2022/04/16 03:45:14;;;;;;;36.90;17.63;;;;;;;5.77;100.00;101721.66;5073653;28;20195;-82
2022/04/16 03:47:39;;;;;;;31.35;16.05;;;;;;;5.75;100.00;101723.41;5072923;28;20025;-82
2022/04/16 03:50:05;;;;;;;32.90;16.23;;;;;;;5.74;100.00;101721.63;5073179;28;20025;-81
2022/04/16 03:52:39;;;;;;;29.88;16.02;;;;;;;5.70;100.00;101727.75;5072987;28;20073;-82
2022/04/16 04:00:33;;;;;;;25.42;13.75;;;;;;;5.53;100.00;101739.00;5073013;28;20040;-81
2022/04/16 04:02:58;;;;;;;24.77;13.25;;;;;;;5.47;100.00;101734.50;5073236;28;20028;-82
2022/04/16 04:05:23;;;;;;;26.02;13.25;;;;;;;5.43;100.00;101734.44;5073109;28;20024;-80
2022/04/16 04:07:49;;;;;;;22.25;12.23;;;;;;;5.36;100.00;101736.13;5072084;28;20495;-82
2022/04/16 04:10:14;;;;;;;22.85;12.15;;;;;;;5.31;100.00;101741.31;5073002;28;20025;-81
2022/04/16 04:12:40;;;;;;;21.95;12.80;;;;;;;5.27;100.00;101736.84;5072576;28;20073;-81
2022/04/16 04:15:05;;;;;;;23.45;12.35;;;;;;;5.23;100.00;101746.50;5072579;28;20040;-81
2022/04/16 04:17:31;;;;;;;21.60;12.70;;;;;;;5.17;100.00;101757.00;5072749;28;20024;-81
2022/04/16 04:19:56;;;;;;;21.10;11.60;;;;;;;5.15;100.00;101748.16;5072667;28;20028;-81
2022/04/16 04:22:21;;;;;;;19.35;11.80;;;;;;;5.03;100.00;101754.13;5071442;28;20035;-81
2022/04/16 04:24:47;;;;;;;16.27;9.38;;;;;;;4.97;100.00;101754.94;5071441;28;20046;-81
2022/04/16 04:27:13;;;;;;;18.88;9.48;;;;;;;4.87;100.00;101753.00;5072682;28;20021;-83
2022/04/16 04:29:38;;;;;;;16.70;9.45;;;;;;;4.80;100.00;101752.88;5073371;28;20028;-81
2022/04/16 04:32:05;;;;;;;13.35;8.57;;;;;;;4.73;100.00;101763.31;5072489;28;20107;-80
2022/04/16 04:34:31;;;;;;;13.50;8.68;;;;;;;4.68;100.00;101765.88;5072681;28;20055;-81
2022/04/16 04:36:56;;;;;;;14.90;8.93;;;;;;;4.72;100.00;101774.75;5073106;28;20017;-81
2022/04/16 04:39:21;;;;;;;17.33;10.07;;;;;;;4.64;100.00;101779.94;5076653;28;20032;-83
2022/04/16 04:41:47;;;;;;;18.33;10.77;;;;;;;4.61;100.00;101777.22;5076471;28;20020;-82
2022/04/16 04:44:13;;;;;;;21.70;11.32;;;;;;;4.56;100.00;101775.34;5076501;28;20451;-83
2022/04/16 04:46:40;;;;;;;17.02;10.82;;;;;;;4.51;100.00;101779.66;5076109;28;20508;-82
2022/04/16 04:49:08;;;;;;;20.20;11.05;;;;;;;4.50;100.00;101780.53;5076679;28;20107;-80
2022/04/16 04:51:37;;;;;;;19.77;10.48;;;;;;;4.39;100.00;101788.25;5076550;28;20513;-81
2022/04/16 04:54:03;;;;;;;16.00;9.65;;;;;;;4.35;100.00;101787.31;5076730;28;20058;-81
2022/04/16 04:56:29;;;;;;;17.23;9.70;;;;;;;4.35;100.00;101800.56;5076367;28;20020;-81
2022/04/16 04:58:54;;;;;;;21.15;9.90;;;;;;;4.35;100.00;101800.56;5076287;28;20020;-80
2022/04/16 05:01:19;;;;;;;17.75;9.63;;;;;;;4.36;100.00;101796.13;5076546;28;20071;-82
2022/04/16 05:03:45;;;;;;;18.13;9.40;;;;;;;4.41;100.00;101796.22;5074659;28;20020;-82
2022/04/16 05:06:10;;;;;;;15.90;8.60;;;;;;;4.36;100.00;101799.66;5075933;28;20021;-82
2022/04/16 05:08:35;;;;;;;12.13;7.57;;;;;;;4.39;100.00;101803.22;5075710;28;20100;-82
2022/04/16 05:11:00;;;;;;;15.25;7.18;;;;;;;4.30;100.00;101807.50;5075951;28;20469;-82
2022/04/16 05:13:26;;;;;;;11.57;6.90;;;;;;;4.33;100.00;101815.47;5074299;28;20089;-84
2022/04/16 05:15:51;;;;;;;10.95;6.20;;;;;;;4.29;100.00;101818.03;5075955;28;20021;-83
2022/04/16 05:18:16;;;;;;;11.73;6.57;;;;;;;4.29;100.00;101826.84;5075588;28;20501;-82
2022/04/16 05:20:42;;;;;;;10.95;6.18;;;;;;;4.25;100.00;101822.38;5075456;28;20505;-83
2022/04/16 05:23:07;;;;;;;11.45;6.68;;;;;;;4.22;100.00;101827.59;5075514;28;20138;-82
2022/04/16 05:25:32;;;;;;;11.75;6.05;;;;;;;4.15;100.00;101830.97;5075709;28;20040;-84
2022/04/16 05:27:58;;;;;;;9.55;5.63;;;;;;;4.19;100.00;101836.34;5074077;28;20021;-85
2022/04/16 05:30:28;;;;;;;10.82;5.40;;;;;;;4.16;100.00;101838.91;5075528;28;20021;-85
2022/04/16 05:32:56;;;;;;;9.77;5.30;;;;;;;4.17;100.00;101842.47;5074561;28;20021;-84
2022/04/16 05:35:21;;;;;;;9.23;5.22;;;;;;;4.10;100.00;101838.78;5074482;28;20051;-85
2022/04/16 05:37:47;;;;;;;9.25;5.28;;;;;;;4.10;100.00;101841.41;5075632;28;20067;-85
2022/04/16 05:40:12;;;;;;;8.32;4.90;;;;;;;4.01;100.00;101843.03;5075826;28;20028;-84
2022/04/16 05:42:39;;;;;;;8.18;4.72;;;;;;;3.99;100.00;101846.47;5075514;28;20500;-85
2022/04/16 05:45:05;;;;;;;11.20;5.32;;;;;;;3.96;100.00;101847.31;5075709;28;20028;-84
2022/04/16 05:47:30;;;;;;;7.78;4.45;;;;;;;4.00;100.00;101853.53;5075485;28;20473;-84
2022/04/16 05:49:56;;;;;;;10.35;5.50;;;;;;;4.00;100.00;101856.19;5074676;28;20028;-84
2022/04/16 05:52:22;;;;;;;10.32;4.82;;;;;;;4.03;100.00;101853.63;5075600;28;20400;-85
2022/04/16 05:54:48;;;;;;;9.13;5.18;;;;;;;4.00;100.00;101861.47;5074947;28;20024;-83
2022/04/16 05:57:14;;;;;;;9.40;4.72;;;;;;;4.04;100.00;101865.09;5075205;28;20392;-84
2022/04/16 05:59:39;;;;;;;11.38;4.88;;;;;;;4.01;100.00;101856.25;5075135;28;20020;-85
2022/04/16 06:02:04;;;;;;;10.07;5.10;;;;;;;4.04;100.00;101860.69;5075941;28;20477;-84
2022/04/16 06:04:30;;;;;;;7.18;4.90;;;;;;;4.02;100.00;101862.41;5076124;28;20029;-82
2022/04/16 06:06:55;;;;;;;8.93;5.03;;;;;;;4.04;100.00;101871.28;5075015;28;20029;-83
2022/04/16 06:09:20;;;;;;;8.73;5.20;;;;;;;4.07;100.00;101870.44;5075788;28;20024;-84
2022/04/16 06:11:48;;;;;;;8.95;4.95;;;;;;;4.15;100.00;101868.84;5096980;22;20041;-77
2022/04/16 06:14:14;;;;;;;7.50;4.85;;;;;;;4.19;100.00;101862.78;5077498;28;20028;-78
2022/04/16 06:16:39;;;;;;;7.85;5.38;;;;;;;4.23;100.00;101869.03;5076116;28;20031;-77
2022/04/16 06:19:04;;;;;;;8.27;5.50;;;;;;;4.23;100.00;101874.31;5077046;28;20465;-78
2022/04/16 06:21:29;;;;;;;11.07;5.68;;;;;;;4.23;100.00;101876.97;5077171;28;20028;-78
2022/04/16 06:23:55;;;;;;;8.52;5.68;;;;;;;4.22;100.00;101880.47;5075965;28;20042;-77
2022/04/16 06:26:21;;;;;;;8.95;5.63;;;;;;;4.30;100.00;101886.84;5076206;28;20016;-78
2022/04/16 06:28:46;;;;;;;10.35;5.63;;;;;;;4.39;100.00;101895.81;5074998;28;20024;-77
2022/04/16 06:31:12;;;;;;;8.15;5.10;;;;;;;4.43;100.00;101898.53;5073538;28;20040;-77
2022/04/16 06:33:37;;;;;;;8.60;5.55;;;;;;;4.51;100.00;101893.41;5075141;28;20031;-77
2022/04/16 06:36:02;;;;;;;8.05;5.00;;;;;;;4.53;100.00;101907.59;5074718;28;20031;-77
2022/04/16 06:38:29;;;;;;;6.43;4.43;;;;;;;4.51;100.00;101897.84;5074917;28;20386;-77
2022/04/16 06:40:55;;;;;;;5.95;3.78;;;;;;;4.35;100.00;101903.69;5074523;28;20024;-77
2022/04/16 06:43:20;;;;;;;7.25;3.95;;;;;;;4.46;100.00;101906.56;5074921;28;20031;-77
2022/04/16 06:45:45;;;;;;;5.53;3.58;;;;;;;4.50;100.00;101899.59;5074203;28;20480;-77
2022/04/16 06:48:11;;;;;;;6.13;3.63;;;;;;;4.43;100.00;101913.56;5074400;28;20050;-77
2022/04/16 06:50:36;;;;;;;5.93;3.63;;;;;;;4.52;100.00;101915.47;5072974;28;20024;-77
2022/04/16 06:53:02;;;;;;;7.93;3.80;;;;;;;4.56;100.00;101905.00;5074876;28;20038;-77
2022/04/16 06:55:27;;;;;;;8.10;3.70;;;;;;;4.42;100.00;101914.41;5074207;28;20501;-78
2022/04/16 06:57:52;;;;;;;5.88;3.20;;;;;;;4.44;99.68;101915.31;5074716;28;20025;-77
2022/04/16 07:00:18;;;;;;;6.13;3.20;;;;;;;4.49;98.88;101911.03;5073130;28;20058;-77
2022/04/16 07:02:43;;;;;;;5.68;3.40;;;;;;;4.49;97.35;101916.31;5073310;28;20102;-77
2022/04/16 07:05:09;;;;;;;5.65;3.65;;;;;;;4.63;100.00;101913.06;5073393;28;20020;-77
2022/04/16 07:07:34;;;;;;;6.82;3.80;;;;;;;4.68;100.00;101908.78;5074627;28;20059;-77
2022/04/16 07:09:59;;;;;;;5.53;3.40;;;;;;;4.71;100.00;101916.78;5072597;28;20042;-77
2022/04/16 07:12:25;;;;;;;6.03;3.40;;;;;;;4.82;100.00;101913.47;5073991;28;20028;-77
2022/04/16 07:14:50;;;;;;;4.60;3.10;;;;;;;4.88;100.00;101921.50;5074034;28;20024;-77
2022/04/16 07:17:16;;;;;;;3.60;2.60;;;;;;;4.90;94.88;101927.72;5074447;28;20052;-77
2022/04/16 07:19:41;;;;;;;4.10;2.80;;;;;;;4.92;95.64;101931.31;5074234;28;20032;-76
2022/04/16 07:22:07;;;;;;;3.90;2.60;;;;;;;4.91;93.55;101932.16;5074247;28;20077;-76
2022/04/16 07:24:32;;;;;;;3.95;2.95;;;;;;;4.96;95.81;101926.97;5074067;28;20067;-76
2022/04/16 07:26:58;;;;;;;4.72;2.95;;;;;;;5.01;94.39;101920.91;5072493;28;20048;-76
2022/04/16 07:29:25;;;;;;;4.60;2.97;;;;;;;4.96;91.27;101922.56;5073850;28;20477;-77
2022/04/16 07:31:50;;;;;;;5.93;3.13;;;;;;;5.03;92.03;101928.88;5072553;28;20021;-77
2022/04/16 07:34:16;;;;;;;5.45;2.90;;;;;;;5.06;90.41;101930.69;5074402;28;20470;-77
2022/04/16 07:36:43;;;;;;;6.50;2.60;;;;;;;5.21;91.37;101938.03;5073455;28;20538;-78
2022/04/16 07:39:09;;;;;;;4.75;2.60;;;;;;;5.24;89.02;101939.00;5074548;28;20034;-78
2022/04/16 07:41:34;;;;;;;4.80;2.85;;;;;;;5.27;89.14;101942.56;5074979;28;20020;-77
2022/04/16 07:44:03;;;;;;;5.28;2.90;;;;;;;5.23;87.50;101942.50;5072581;28;20410;-78
2022/04/16 07:46:32;;;;;;;4.95;2.60;;;;;;;5.25;88.00;101940.78;5074093;28;20024;-78
2022/04/16 07:48:58;;;;;;;3.50;2.70;;;;;;;5.35;88.86;101935.66;5074742;28;20047;-78
2022/04/16 07:51:27;;;;;;;3.75;2.70;;;;;;;5.44;86.86;101941.09;5076348;28;20450;-78
2022/04/16 07:53:53;;;;;;;5.35;3.00;;;;;;;5.31;85.99;101937.34;5074294;28;20056;-78
2022/04/16 07:56:19;;;;;;;4.05;2.50;;;;;;;5.45;84.80;101942.91;5075896;28;20012;-78
2022/04/16 07:58:44;;;;;;;6.40;2.80;;;;;;;5.56;85.89;101950.16;5074654;28;20020;-77
2022/04/16 08:01:09;;;;;;;4.85;3.17;;;;;;;5.68;87.48;101950.38;5075078;28;20017;-78
2022/04/16 08:03:35;;;;;;;4.05;2.75;;;;;;;5.58;83.60;101949.31;5075841;28;20378;-77
2022/04/16 08:06:00;;;;;;;5.03;3.17;;;;;;;5.69;82.51;101948.63;5074592;28;20412;-78
2022/04/16 08:08:25;;;;;;;4.10;3.08;;;;;;;5.78;83.39;101950.50;5074004;28;20082;-78
2022/04/16 08:10:52;;;;;;;5.38;2.45;;;;;;;5.90;80.46;101955.16;5076416;28;20032;-78
2022/04/16 08:13:21;;;;;;;5.70;3.67;;;;;;;5.86;81.34;101953.28;5080725;28;20029;-78
2022/04/16 08:15:47;;;;;;;4.68;2.88;;;;;;;6.07;81.50;101957.16;5080942;28;20549;-78
2022/04/16 08:18:13;;;;;;;3.97;2.50;;;;;;;5.97;78.76;101958.78;5083168;28;20056;-78
2022/04/16 08:20:38;;;;;;;4.10;2.70;;;;;;;6.14;78.93;101962.63;5080887;28;20115;-78
2022/04/16 08:23:06;;;;;;;4.35;2.47;;;;;;;6.34;78.67;101966.47;5081060;28;20020;-78
2022/04/16 08:28:01;;;;;;;4.97;2.67;;;;;;;6.30;74.08;101965.50;5082212;28;20115;-77
2022/04/16 08:30:27;;;;;;;4.90;2.63;;;;;;;6.23;74.85;101961.88;5080737;28;20120;-78
2022/04/16 08:32:52;;;;;;;4.20;2.30;;;;;;;6.44;74.51;101964.84;5080928;28;20048;-77
2022/04/16 08:35:19;;;;;;;4.75;2.72;;;;;;;6.46;77.94;101965.75;5080446;28;20027;-77
2022/04/16 08:37:46;;;;;;;3.05;2.22;;;;;;;6.66;74.85;101967.78;5082636;28;20025;-78
2022/04/16 08:40:12;;;;;;;4.13;2.40;;;;;;;6.65;75.05;101966.00;5082324;28;20028;-77
2022/04/16 08:42:39;;;;;;;3.72;2.70;;;;;;;6.84;75.44;101971.53;5080693;28;20025;-78
2022/04/16 08:45:06;;;;;;;2.88;2.00;;;;;;;6.69;69.77;101975.78;5083170;28;20027;-78
2022/04/16 08:47:33;;;;;;;4.03;2.33;;;;;;;7.23;73.61;101970.25;5083781;28;20020;-79
2022/04/16 08:50:04;;;;;;;3.55;2.35;;;;;;;7.08;70.81;101975.38;5082671;28;20029;-78
2022/04/16 08:52:31;;;;;;;3.55;2.40;;;;;;;7.08;69.19;101967.41;5082438;28;20104;-79
2022/04/16 08:55:00;;;;;;;2.83;2.10;;;;;;;7.33;69.62;101973.00;5083714;28;20029;-79
2022/04/16 08:57:26;;;;;;;3.25;2.17;;;;;;;7.33;68.75;101983.63;5084006;28;20024;-78
2022/04/16 08:59:52;;;;;;;3.60;2.00;;;;;;;7.41;68.14;101989.94;5082392;28;20020;-79
2022/04/16 09:02:21;;;;;;;4.07;2.17;;;;;;;7.37;66.87;101993.44;5081774;28;20028;-80
2022/04/16 09:04:47;;;;;;;3.08;2.17;;;;;;;7.58;67.53;101992.75;5081545;28;20024;-78
2022/04/16 09:07:13;;;;;;;4.10;2.25;;;;;;;7.87;67.82;101990.34;5080096;28;20035;-78
2022/04/16 09:09:38;;;;;;;2.83;1.70;;;;;;;8.04;64.24;101990.50;5081460;28;20037;-78
2022/04/16 09:12:18;;;;;;;3.53;2.10;;;;;;;8.38;65.34;101993.41;5081052;28;20028;-78
2022/04/16 09:14:45;;;;;;;2.95;1.90;;;;;;;8.59;64.10;101988.22;5079810;28;20078;-78
2022/04/16 09:17:15;;;;;;;2.15;1.60;;;;;;;8.56;61.26;101994.41;5080803;28;20104;-78
2022/04/16 09:19:40;;;;;;;2.63;1.63;;;;;;;8.50;61.29;101994.38;5080762;28;20455;-78
2022/04/16 09:22:08;;;;;;;3.15;1.60;;;;;;;8.75;60.97;101999.88;5079397;28;20040;-79
2022/04/16 09:24:48;;;;;;;2.53;1.50;;;;;;;8.98;60.79;101996.41;5077315;28;20078;-78
2022/04/16 09:27:14;;;;;;;2.63;1.77;;;;;;;8.99;61.36;102000.88;5077400;28;20530;-78
2022/04/16 09:29:40;;;;;;;2.60;1.65;;;;;;;9.10;57.77;101994.66;5075791;28;20032;-78
2022/04/16 09:32:06;;;;;;;2.55;1.55;;;;;;;9.31;58.88;101999.19;5077655;28;20024;-78
2022/04/16 09:34:32;;;;;;;2.67;1.45;;;;;;;9.68;60.08;101994.84;5077450;28;20025;-78
2022/04/16 09:36:57;;;;;;;2.95;1.73;;;;;;;9.28;57.89;102000.06;5076619;28;20025;-78
2022/04/16 09:39:23;;;;;;;4.25;1.38;;;;;;;9.39;56.21;102001.88;5077710;28;20108;-78
2022/04/16 09:41:53;;;;;;;2.67;1.30;;;;;;;9.43;56.72;101997.47;5076845;28;20504;-78
2022/04/16 09:44:20;;;;;;;3.15;1.60;;;;;;;9.61;58.15;101988.63;5076730;28;20029;-78
2022/04/16 09:46:46;;;;;;;2.25;1.30;;;;;;;9.72;54.89;101983.25;5076145;28;20013;-78
2022/04/16 09:49:13;;;;;;;2.63;1.40;;;;;;;9.42;54.59;101988.56;5076238;28;20024;-78
2022/04/16 09:51:41;;;;;;;3.10;1.50;;;;;;;9.50;53.42;101988.59;5076617;28;20088;-78
2022/04/16 09:54:06;;;;;;;2.25;1.30;;;;;;;9.42;54.23;101990.34;5075040;28;20040;-78
2022/04/16 09:56:37;;;;;;;3.17;1.55;;;;;;;9.61;55.67;101985.94;5076025;28;20028;-78
2022/04/16 09:59:04;;;;;;;3.97;1.40;;;;;;;9.74;56.63;101992.16;5074157;28;20020;-78
2022/04/16 10:01:30;;;;;;;3.63;1.20;;;;;;;9.99;54.92;101988.63;5075712;28;20024;-78
2022/04/16 10:03:56;;;;;;;2.97;1.13;;;;;;;10.53;54.00;101984.13;5075687;28;20032;-78
2022/04/16 10:06:22;;;;;;;1.63;1.02;;;;;;;10.44;52.46;101999.25;5075609;28;20017;-78
2022/04/16 10:08:50;;;;;;;3.20;1.23;;;;;;;10.29;50.77;101997.50;5075393;28;20035;-78
2022/04/16 10:11:42;;;;;;;3.42;1.35;;;;;;;10.31;50.65;101998.38;5039043;28;1030280;-78
2022/04/16 10:14:28;;;;;;;2.53;1.33;;;;;;;10.16;49.37;101999.28;5076822;28;20485;-78
2022/04/16 10:17:06;;;;;;;3.35;1.20;;;;;;;10.54;52.14;102002.81;5075277;28;20396;-78
2022/04/16 10:20:00;;;;;;;2.67;1.20;;;;;;;10.94;51.29;101998.25;5076466;28;20063;-79
2022/04/16 10:22:27;;;;;;;2.10;1.10;;;;;;;11.27;50.24;101996.31;5076242;28;20035;-78
2022/04/16 10:24:59;;;;;;;1.98;1.00;;;;;;;11.21;49.61;102009.69;5076500;28;20029;-78
2022/04/16 10:27:30;;;;;;;2.67;1.10;;;;;;;11.03;46.68;102005.34;5076610;28;20031;-78
2022/04/16 10:30:07;;;;;;;1.70;0.90;;;;;;;11.52;46.93;102000.63;5076626;28;20026;-78
2022/04/16 10:32:43;;;;;;;2.63;1.00;;;;;;;11.19;48.95;102006.16;5076420;28;20028;-78
2022/04/16 10:35:14;;;;;;;2.85;1.20;;;;;;;10.95;46.36;101997.38;5075807;28;20485;-78
2022/04/16 10:37:43;;;;;;;3.88;1.35;;;;;;;11.66;47.62;101997.84;5076375;28;20024;-78
2022/04/16 10:40:16;;;;;;;2.60;1.15;;;;;;;11.51;47.50;101990.84;5076041;28;20027;-78
2022/04/16 10:42:47;;;;;;;2.42;1.27;;;;;;;10.96;48.71;101996.47;5075360;28;20020;-78
2022/04/16 10:45:13;;;;;;;3.30;1.05;;;;;;;11.44;46.10;101989.09;5075986;28;20025;-78
2022/04/16 10:47:41;;;;;;;1.65;0.90;;;;;;;11.75;49.30;101991.53;5075897;28;20024;-78
2022/04/16 10:50:19;;;;;;;2.10;1.02;;;;;;;11.29;48.07;101994.50;5075821;28;20397;-79
2022/04/16 10:52:57;;;;;;;2.28;1.42;;;;;;;11.81;46.68;101998.63;5075868;28;20489;-78
2022/04/16 10:55:30;;;;;;;1.60;1.00;;;;;;;12.02;45.33;101999.38;5074316;28;20214;-78
2022/04/16 10:58:04;;;;;;;2.57;1.17;;;;;;;11.65;43.73;101996.06;5075996;28;20028;-78
2022/04/16 11:00:41;;;;;;;4.10;1.25;;;;;;;12.04;47.96;101986.84;5075718;28;20024;-78
2022/04/16 11:03:14;;;;;;;2.75;1.20;;;;;;;11.83;46.65;101997.72;5075810;28;20024;-78
2022/04/16 11:05:43;;;;;;;3.08;1.55;;;;;;;12.09;45.91;101990.38;5075231;28;20028;-78
2022/04/16 11:08:11;;;;;;;2.22;1.40;;;;;;;12.20;45.25;101982.28;5075205;28;20085;-78
2022/04/16 11:10:38;;;;;;;3.00;1.40;;;;;;;12.63;45.05;101985.41;5074273;28;20107;-78
2022/04/16 11:13:03;;;;;;;3.83;1.50;;;;;;;12.44;47.31;101996.34;5075380;28;20066;-78
2022/04/16 11:15:29;;;;;;;2.70;1.30;;;;;;;12.43;41.63;101982.94;5075959;28;20025;-78
2022/04/16 11:17:55;;;;;;;1.92;1.13;;;;;;;12.34;43.60;101978.59;5075804;28;20068;-78
2022/04/16 11:20:21;;;;;;;4.30;1.33;;;;;;;12.57;45.87;101975.66;5074570;28;20029;-78
2022/04/16 11:22:47;;;;;;;2.30;1.20;;;;;;;12.19;44.38;101975.13;5074193;28;20017;-78
2022/04/16 11:25:12;;;;;;;2.20;1.20;;;;;;;12.74;44.24;101972.78;5075600;28;20488;-78
2022/04/16 11:36:05;;;;;;;3.17;1.30;;;;;;;12.13;43.87;101970.75;5075219;28;20027;-78
2022/04/16 11:38:33;;;;;;;2.63;1.50;;;;;;;12.02;41.42;101961.88;5075142;28;20025;-78